sensor_id;sensor_type;location;lat;lon;timestamp;P1;durP1;ratioP1;P2;durP2;ratioP2
60973;SDS011;46846;51.528;5.076;2022-11-15T00:01:34;298.52;;;281.70;;
60973;SDS011;46846;51.528;5.076;2022-11-15T00:04:02;277.08;;;261.40;;
60973;SDS011;46846;51.528;5.076;2022-11-15T00:06:28;301.15;;;283.85;;
60973;SDS011;46846;51.528;5.076;2022-11-15T00:08:53;284.88;;;267.98;;
60973;SDS011;46846;51.528;5.076;2022-11-15T00:11:19;283.48;;;268.23;;
60973;SDS011;46846;51.528;5.076;2022-11-15T00:13:44;277.40;;;262.02;;
60973;SDS011;46846;51.528;5.076;2022-11-15T00:16:09;305.63;;;287.97;;
60973;SDS011;46846;51.528;5.076;2022-11-15T00:18:35;300.02;;;283.10;;
60973;SDS011;46846;51.528;5.076;2022-11-15T00:21:03;288.50;;;272.35;;
60973;SDS011;46846;51.528;5.076;2022-11-15T00:23:31;282.73;;;267.13;;
60973;SDS011;46846;51.528;5.076;2022-11-15T00:25:57;302.15;;;285.70;;
60973;SDS011;46846;51.528;5.076;2022-11-15T00:28:24;289.40;;;273.08;;
60973;SDS011;46846;51.528;5.076;2022-11-15T00:30:49;281.08;;;265.35;;
60973;SDS011;46846;51.528;5.076;2022-11-15T00:33:15;292.63;;;276.70;;
60973;SDS011;46846;51.528;5.076;2022-11-15T00:35:40;302.65;;;285.85;;
60973;SDS011;46846;51.528;5.076;2022-11-15T00:38:06;291.88;;;275.38;;
60973;SDS011;46846;51.528;5.076;2022-11-15T00:40:31;284.98;;;268.33;;
60973;SDS011;46846;51.528;5.076;2022-11-15T00:42:57;294.40;;;277.85;;
60973;SDS011;46846;51.528;5.076;2022-11-15T00:45:23;285.27;;;268.83;;
60973;SDS011;46846;51.528;5.076;2022-11-15T00:50:14;289.10;;;272.92;;
60973;SDS011;46846;51.528;5.076;2022-11-15T00:52:40;272.13;;;256.63;;
60973;SDS011;46846;51.528;5.076;2022-11-15T00:55:05;288.00;;;271.63;;
60973;SDS011;46846;51.528;5.076;2022-11-15T00:57:31;282.02;;;265.90;;
60973;SDS011;46846;51.528;5.076;2022-11-15T00:59:56;285.38;;;269.17;;
60973;SDS011;46846;51.528;5.076;2022-11-15T01:02:21;288.92;;;272.42;;
60973;SDS011;46846;51.528;5.076;2022-11-15T01:04:47;303.90;;;287.40;;
60973;SDS011;46846;51.528;5.076;2022-11-15T01:07:12;285.25;;;269.42;;
60973;SDS011;46846;51.528;5.076;2022-11-15T01:09:38;286.75;;;271.48;;
60973;SDS011;46846;51.528;5.076;2022-11-15T01:12:03;286.58;;;270.42;;
60973;SDS011;46846;51.528;5.076;2022-11-15T01:14:29;290.27;;;273.77;;
60973;SDS011;46846;51.528;5.076;2022-11-15T01:16:54;300.10;;;283.27;;
60973;SDS011;46846;51.528;5.076;2022-11-15T01:19:19;289.10;;;272.77;;
60973;SDS011;46846;51.528;5.076;2022-11-15T01:21:45;305.55;;;288.65;;
60973;SDS011;46846;51.528;5.076;2022-11-15T01:24:11;302.20;;;285.87;;
60973;SDS011;46846;51.528;5.076;2022-11-15T01:26:37;310.85;;;293.70;;
60973;SDS011;46846;51.528;5.076;2022-11-15T01:29:03;288.27;;;272.73;;
60973;SDS011;46846;51.528;5.076;2022-11-15T01:31:28;296.30;;;280.30;;
60973;SDS011;46846;51.528;5.076;2022-11-15T01:33:54;288.43;;;271.60;;
60973;SDS011;46846;51.528;5.076;2022-11-15T01:36:20;299.20;;;281.98;;
60973;SDS011;46846;51.528;5.076;2022-11-15T01:38:47;299.23;;;283.00;;
60973;SDS011;46846;51.528;5.076;2022-11-15T01:41:23;305.58;;;289.02;;
60973;SDS011;46846;51.528;5.076;2022-11-15T01:43:54;307.63;;;291.08;;
60973;SDS011;46846;51.528;5.076;2022-11-15T01:48:58;283.20;;;267.23;;
60973;SDS011;46846;51.528;5.076;2022-11-15T01:51:27;293.23;;;276.77;;
60973;SDS011;46846;51.528;5.076;2022-11-15T01:53:57;282.90;;;267.13;;
60973;SDS011;46846;51.528;5.076;2022-11-15T01:56:27;292.70;;;276.27;;
60973;SDS011;46846;51.528;5.076;2022-11-15T01:58:56;294.08;;;277.85;;
60973;SDS011;46846;51.528;5.076;2022-11-15T02:01:23;302.98;;;286.33;;
60973;SDS011;46846;51.528;5.076;2022-11-15T02:03:52;307.13;;;290.58;;
60973;SDS011;46846;51.528;5.076;2022-11-15T02:06:21;293.00;;;277.30;;
60973;SDS011;46846;51.528;5.076;2022-11-15T02:08:47;287.08;;;271.35;;
60973;SDS011;46846;51.528;5.076;2022-11-15T02:11:14;294.00;;;278.05;;
60973;SDS011;46846;51.528;5.076;2022-11-15T02:13:39;308.63;;;291.48;;
60973;SDS011;46846;51.528;5.076;2022-11-15T02:16:23;314.95;;;297.45;;
60973;SDS011;46846;51.528;5.076;2022-11-15T02:19:02;283.48;;;268.35;;
60973;SDS011;46846;51.528;5.076;2022-11-15T02:22:00;296.60;;;279.00;;
60973;SDS011;46846;51.528;5.076;2022-11-15T02:27:42;304.15;;;287.70;;
60973;SDS011;46846;51.528;5.076;2022-11-15T02:30:18;310.48;;;292.45;;
60973;SDS011;46846;51.528;5.076;2022-11-15T02:33:23;292.10;;;275.48;;
60973;SDS011;46846;51.528;5.076;2022-11-15T02:36:01;299.85;;;282.98;;
60973;SDS011;46846;51.528;5.076;2022-11-15T02:43:47;306.23;;;288.90;;
60973;SDS011;46846;51.528;5.076;2022-11-15T02:49:27;291.85;;;275.42;;
60973;SDS011;46846;51.528;5.076;2022-11-15T02:51:56;308.48;;;291.58;;
60973;SDS011;46846;51.528;5.076;2022-11-15T02:54:22;290.60;;;274.83;;
60973;SDS011;46846;51.528;5.076;2022-11-15T02:56:54;303.92;;;287.17;;
60973;SDS011;46846;51.528;5.076;2022-11-15T03:02:31;294.92;;;278.63;;
60973;SDS011;46846;51.528;5.076;2022-11-15T03:07:53;299.77;;;283.60;;
60973;SDS011;46846;51.528;5.076;2022-11-15T03:22:02;294.02;;;277.27;;
60973;SDS011;46846;51.528;5.076;2022-11-15T03:24:31;315.58;;;297.73;;
60973;SDS011;46846;51.528;5.076;2022-11-15T03:27:01;319.55;;;302.02;;
60973;SDS011;46846;51.528;5.076;2022-11-15T03:29:34;324.33;;;306.67;;
60973;SDS011;46846;51.528;5.076;2022-11-15T03:32:06;322.55;;;304.60;;
60973;SDS011;46846;51.528;5.076;2022-11-15T03:37:45;310.65;;;293.05;;
60973;SDS011;46846;51.528;5.076;2022-11-15T03:40:11;321.73;;;304.10;;
60973;SDS011;46846;51.528;5.076;2022-11-15T03:45:15;327.63;;;310.05;;
60973;SDS011;46846;51.528;5.076;2022-11-15T03:47:46;301.52;;;284.83;;
60973;SDS011;46846;51.528;5.076;2022-11-15T03:50:20;322.58;;;304.65;;
60973;SDS011;46846;51.528;5.076;2022-11-15T03:52:48;307.88;;;291.08;;
60973;SDS011;46846;51.528;5.076;2022-11-15T03:55:18;312.13;;;294.73;;
60973;SDS011;46846;51.528;5.076;2022-11-15T03:57:45;317.13;;;299.73;;
60973;SDS011;46846;51.528;5.076;2022-11-15T04:00:12;317.50;;;299.95;;
60973;SDS011;46846;51.528;5.076;2022-11-15T04:02:37;324.83;;;306.83;;
60973;SDS011;46846;51.528;5.076;2022-11-15T04:05:03;333.10;;;314.77;;
60973;SDS011;46846;51.528;5.076;2022-11-15T04:07:29;312.10;;;294.90;;
60973;SDS011;46846;51.528;5.076;2022-11-15T04:09:54;327.33;;;309.02;;
60973;SDS011;46846;51.528;5.076;2022-11-15T04:12:41;314.45;;;297.27;;
60973;SDS011;46846;51.528;5.076;2022-11-15T04:15:09;323.50;;;305.88;;
60973;SDS011;46846;51.528;5.076;2022-11-15T04:17:38;332.70;;;314.50;;
60973;SDS011;46846;51.528;5.076;2022-11-15T04:20:04;317.70;;;300.50;;
60973;SDS011;46846;51.528;5.076;2022-11-15T04:22:52;332.17;;;313.65;;
60973;SDS011;46846;51.528;5.076;2022-11-15T04:25:36;299.67;;;283.75;;
60973;SDS011;46846;51.528;5.076;2022-11-15T04:28:01;310.05;;;293.40;;
60973;SDS011;46846;51.528;5.076;2022-11-15T04:30:27;321.77;;;303.50;;
60973;SDS011;46846;51.528;5.076;2022-11-15T04:32:52;325.42;;;308.02;;
60973;SDS011;46846;51.528;5.076;2022-11-15T04:35:18;315.90;;;298.58;;
60973;SDS011;46846;51.528;5.076;2022-11-15T04:37:43;331.42;;;313.40;;
60973;SDS011;46846;51.528;5.076;2022-11-15T04:40:08;331.97;;;314.00;;
60973;SDS011;46846;51.528;5.076;2022-11-15T04:42:34;332.92;;;313.85;;
60973;SDS011;46846;51.528;5.076;2022-11-15T04:44:59;325.52;;;307.55;;
60973;SDS011;46846;51.528;5.076;2022-11-15T04:47:24;314.45;;;297.27;;
60973;SDS011;46846;51.528;5.076;2022-11-15T04:49:50;331.97;;;314.10;;
60973;SDS011;46846;51.528;5.076;2022-11-15T04:52:15;320.97;;;303.57;;
60973;SDS011;46846;51.528;5.076;2022-11-15T04:54:40;308.73;;;292.00;;
60973;SDS011;46846;51.528;5.076;2022-11-15T04:57:07;319.73;;;302.35;;
60973;SDS011;46846;51.528;5.076;2022-11-15T04:59:33;337.05;;;318.38;;
60973;SDS011;46846;51.528;5.076;2022-11-15T05:01:58;319.48;;;302.42;;
60973;SDS011;46846;51.528;5.076;2022-11-15T05:04:23;319.17;;;301.88;;
60973;SDS011;46846;51.528;5.076;2022-11-15T05:06:49;317.83;;;300.10;;
60973;SDS011;46846;51.528;5.076;2022-11-15T05:09:16;315.80;;;298.85;;
60973;SDS011;46846;51.528;5.076;2022-11-15T05:11:42;337.55;;;319.00;;
60973;SDS011;46846;51.528;5.076;2022-11-15T05:14:08;322.92;;;305.45;;
60973;SDS011;46846;51.528;5.076;2022-11-15T05:16:34;323.45;;;306.10;;
60973;SDS011;46846;51.528;5.076;2022-11-15T05:18:59;333.35;;;314.85;;
60973;SDS011;46846;51.528;5.076;2022-11-15T05:21:24;339.95;;;321.08;;
60973;SDS011;46846;51.528;5.076;2022-11-15T05:23:50;318.42;;;300.95;;
60973;SDS011;46846;51.528;5.076;2022-11-15T05:26:16;303.52;;;287.42;;
60973;SDS011;46846;51.528;5.076;2022-11-15T05:28:42;314.58;;;297.52;;
60973;SDS011;46846;51.528;5.076;2022-11-15T05:31:11;329.73;;;311.83;;
60973;SDS011;46846;51.528;5.076;2022-11-15T05:33:39;323.88;;;305.80;;
60973;SDS011;46846;51.528;5.076;2022-11-15T05:38:56;338.50;;;320.08;;
60973;SDS011;46846;51.528;5.076;2022-11-15T05:41:36;318.55;;;301.30;;
60973;SDS011;46846;51.528;5.076;2022-11-15T05:44:05;323.00;;;305.58;;
60973;SDS011;46846;51.528;5.076;2022-11-15T05:46:34;318.83;;;301.83;;
60973;SDS011;46846;51.528;5.076;2022-11-15T05:49:01;317.83;;;300.00;;
60973;SDS011;46846;51.528;5.076;2022-11-15T05:51:31;328.25;;;309.70;;
60973;SDS011;46846;51.528;5.076;2022-11-15T05:53:56;334.83;;;316.45;;
60973;SDS011;46846;51.528;5.076;2022-11-15T05:56:23;335.92;;;317.70;;
60973;SDS011;46846;51.528;5.076;2022-11-15T05:58:49;318.85;;;301.98;;
60973;SDS011;46846;51.528;5.076;2022-11-15T06:01:18;340.92;;;322.52;;
60973;SDS011;46846;51.528;5.076;2022-11-15T06:03:43;346.83;;;328.63;;
60973;SDS011;46846;51.528;5.076;2022-11-15T06:06:09;332.57;;;314.33;;
60973;SDS011;46846;51.528;5.076;2022-11-15T06:08:34;325.52;;;307.38;;
60973;SDS011;46846;51.528;5.076;2022-11-15T06:11:06;318.70;;;301.63;;
60973;SDS011;46846;51.528;5.076;2022-11-15T06:13:32;321.13;;;304.08;;
60973;SDS011;46846;51.528;5.076;2022-11-15T06:18:23;321.25;;;304.00;;
60973;SDS011;46846;51.528;5.076;2022-11-15T06:20:48;315.55;;;298.23;;
60973;SDS011;46846;51.528;5.076;2022-11-15T06:23:14;317.60;;;301.00;;
60973;SDS011;46846;51.528;5.076;2022-11-15T06:25:39;309.97;;;293.13;;
60973;SDS011;46846;51.528;5.076;2022-11-15T06:30:33;310.25;;;293.88;;
60973;SDS011;46846;51.528;5.076;2022-11-15T06:32:59;324.50;;;306.67;;
60973;SDS011;46846;51.528;5.076;2022-11-15T06:35:28;316.25;;;298.65;;
60973;SDS011;46846;51.528;5.076;2022-11-15T06:37:55;335.88;;;317.50;;
60973;SDS011;46846;51.528;5.076;2022-11-15T06:40:21;316.10;;;299.48;;
60973;SDS011;46846;51.528;5.076;2022-11-15T06:42:46;347.90;;;329.02;;
60973;SDS011;46846;51.528;5.076;2022-11-15T06:45:11;342.40;;;324.25;;
60973;SDS011;46846;51.528;5.076;2022-11-15T06:47:44;326.35;;;308.95;;
60973;SDS011;46846;51.528;5.076;2022-11-15T06:50:11;318.38;;;301.58;;
60973;SDS011;46846;51.528;5.076;2022-11-15T06:52:36;309.95;;;293.73;;
60973;SDS011;46846;51.528;5.076;2022-11-15T06:55:01;334.88;;;316.48;;
60973;SDS011;46846;51.528;5.076;2022-11-15T06:57:27;328.55;;;310.52;;
60973;SDS011;46846;51.528;5.076;2022-11-15T06:59:52;328.43;;;310.53;;
60973;SDS011;46846;51.528;5.076;2022-11-15T07:02:18;342.03;;;324.13;;
60973;SDS011;46846;51.528;5.076;2022-11-15T07:07:09;317.80;;;300.77;;
60973;SDS011;46846;51.528;5.076;2022-11-15T07:11:59;317.23;;;300.07;;
60973;SDS011;46846;51.528;5.076;2022-11-15T07:14:25;312.80;;;296.30;;
60973;SDS011;46846;51.528;5.076;2022-11-15T07:16:50;329.93;;;312.80;;
60973;SDS011;46846;51.528;5.076;2022-11-15T07:19:15;311.73;;;295.53;;
60973;SDS011;46846;51.528;5.076;2022-11-15T07:21:41;321.17;;;304.33;;
60973;SDS011;46846;51.528;5.076;2022-11-15T07:24:06;319.52;;;302.30;;
60973;SDS011;46846;51.528;5.076;2022-11-15T07:26:32;342.60;;;324.33;;
60973;SDS011;46846;51.528;5.076;2022-11-15T07:28:57;325.38;;;308.02;;
60973;SDS011;46846;51.528;5.076;2022-11-15T07:33:48;325.57;;;308.13;;
60973;SDS011;46846;51.528;5.076;2022-11-15T07:36:13;335.35;;;317.60;;
60973;SDS011;46846;51.528;5.076;2022-11-15T07:41:04;331.00;;;313.43;;
60973;SDS011;46846;51.528;5.076;2022-11-15T07:43:31;329.05;;;311.65;;
60973;SDS011;46846;51.528;5.076;2022-11-15T07:45:58;335.02;;;317.02;;
60973;SDS011;46846;51.528;5.076;2022-11-15T07:48:24;328.33;;;310.98;;
60973;SDS011;46846;51.528;5.076;2022-11-15T07:50:49;316.37;;;299.77;;
60973;SDS011;46846;51.528;5.076;2022-11-15T07:53:15;343.25;;;325.35;;
60973;SDS011;46846;51.528;5.076;2022-11-15T07:55:40;321.42;;;304.42;;
60973;SDS011;46846;51.528;5.076;2022-11-15T08:00:33;300.92;;;285.38;;
60973;SDS011;46846;51.528;5.076;2022-11-15T08:03:09;306.90;;;290.77;;
60973;SDS011;46846;51.528;5.076;2022-11-15T08:05:39;305.08;;;288.98;;
60973;SDS011;46846;51.528;5.076;2022-11-15T08:08:06;335.15;;;318.15;;
60973;SDS011;46846;51.528;5.076;2022-11-15T08:10:33;336.15;;;318.85;;
60973;SDS011;46846;51.528;5.076;2022-11-15T08:13:06;326.05;;;309.45;;
60973;SDS011;46846;51.528;5.076;2022-11-15T08:15:34;320.15;;;303.83;;
60973;SDS011;46846;51.528;5.076;2022-11-15T08:18:01;343.33;;;325.58;;
60973;SDS011;46846;51.528;5.076;2022-11-15T08:20:29;325.73;;;309.00;;
60973;SDS011;46846;51.528;5.076;2022-11-15T08:22:56;338.85;;;320.50;;
60973;SDS011;46846;51.528;5.076;2022-11-15T08:25:22;316.92;;;300.52;;
60973;SDS011;46846;51.528;5.076;2022-11-15T08:27:50;324.20;;;307.42;;
60973;SDS011;46846;51.528;5.076;2022-11-15T08:30:17;341.20;;;322.98;;
60973;SDS011;46846;51.528;5.076;2022-11-15T08:32:42;345.20;;;327.90;;
60973;SDS011;46846;51.528;5.076;2022-11-15T08:35:07;341.40;;;323.75;;
60973;SDS011;46846;51.528;5.076;2022-11-15T08:37:33;316.88;;;300.52;;
60973;SDS011;46846;51.528;5.076;2022-11-15T08:39:59;332.05;;;315.20;;
60973;SDS011;46846;51.528;5.076;2022-11-15T08:42:24;326.25;;;309.42;;
60973;SDS011;46846;51.528;5.076;2022-11-15T08:44:49;325.42;;;308.63;;
60973;SDS011;46846;51.528;5.076;2022-11-15T08:47:15;343.63;;;326.02;;
60973;SDS011;46846;51.528;5.076;2022-11-15T08:49:40;335.17;;;318.30;;
60973;SDS011;46846;51.528;5.076;2022-11-15T08:52:05;318.48;;;302.23;;
60973;SDS011;46846;51.528;5.076;2022-11-15T08:54:31;318.73;;;301.77;;
60973;SDS011;46846;51.528;5.076;2022-11-15T08:56:56;340.90;;;323.38;;
60973;SDS011;46846;51.528;5.076;2022-11-15T08:59:22;316.85;;;300.52;;
60973;SDS011;46846;51.528;5.076;2022-11-15T09:04:12;290.77;;;275.83;;
60973;SDS011;46846;51.528;5.076;2022-11-15T09:06:38;336.40;;;319.45;;
60973;SDS011;46846;51.528;5.076;2022-11-15T09:09:03;330.88;;;314.08;;
60973;SDS011;46846;51.528;5.076;2022-11-15T09:11:29;307.20;;;291.60;;
60973;SDS011;46846;51.528;5.076;2022-11-15T09:13:54;329.05;;;312.10;;
60973;SDS011;46846;51.528;5.076;2022-11-15T09:16:19;320.10;;;303.90;;
60973;SDS011;46846;51.528;5.076;2022-11-15T09:18:45;318.98;;;302.83;;
60973;SDS011;46846;51.528;5.076;2022-11-15T09:21:10;329.77;;;312.63;;
60973;SDS011;46846;51.528;5.076;2022-11-15T09:23:36;318.83;;;302.77;;
60973;SDS011;46846;51.528;5.076;2022-11-15T09:26:03;306.88;;;291.42;;
60973;SDS011;46846;51.528;5.076;2022-11-15T09:28:29;329.73;;;312.98;;
60973;SDS011;46846;51.528;5.076;2022-11-15T09:30:56;328.30;;;311.70;;
60973;SDS011;46846;51.528;5.076;2022-11-15T09:33:26;329.95;;;312.92;;
60973;SDS011;46846;51.528;5.076;2022-11-15T09:38:17;309.40;;;293.85;;
60973;SDS011;46846;51.528;5.076;2022-11-15T09:40:43;309.30;;;293.70;;
60973;SDS011;46846;51.528;5.076;2022-11-15T09:48:32;313.48;;;297.60;;
60973;SDS011;46846;51.528;5.076;2022-11-15T09:51:00;328.83;;;312.10;;
60973;SDS011;46846;51.528;5.076;2022-11-15T09:53:31;338.55;;;321.45;;
60973;SDS011;46846;51.528;5.076;2022-11-15T09:56:03;314.35;;;298.60;;
60973;SDS011;46846;51.528;5.076;2022-11-15T09:58:43;324.60;;;308.25;;
60973;SDS011;46846;51.528;5.076;2022-11-15T10:01:23;322.67;;;306.48;;
60973;SDS011;46846;51.528;5.076;2022-11-15T10:03:53;309.50;;;293.90;;
60973;SDS011;46846;51.528;5.076;2022-11-15T10:06:24;331.42;;;314.88;;
60973;SDS011;46846;51.528;5.076;2022-11-15T10:11:23;338.45;;;321.45;;
60973;SDS011;46846;51.528;5.076;2022-11-15T10:14:30;336.85;;;319.98;;
60973;SDS011;46846;51.528;5.076;2022-11-15T10:16:56;329.23;;;312.63;;
60973;SDS011;46846;51.528;5.076;2022-11-15T10:24:45;319.27;;;303.13;;
60973;SDS011;46846;51.528;5.076;2022-11-15T10:27:12;321.67;;;305.45;;
60973;SDS011;46846;51.528;5.076;2022-11-15T10:29:47;313.45;;;297.80;;
60973;SDS011;46846;51.528;5.076;2022-11-15T10:32:15;315.48;;;299.63;;
60973;SDS011;46846;51.528;5.076;2022-11-15T10:34:42;336.73;;;319.85;;
60973;SDS011;46846;51.528;5.076;2022-11-15T10:37:07;339.60;;;322.40;;
60973;SDS011;46846;51.528;5.076;2022-11-15T10:39:33;337.55;;;320.63;;
60973;SDS011;46846;51.528;5.076;2022-11-15T10:42:14;319.73;;;303.73;;
60973;SDS011;46846;51.528;5.076;2022-11-15T10:44:50;326.58;;;309.83;;
60973;SDS011;46846;51.528;5.076;2022-11-15T10:47:22;315.40;;;299.27;;
60973;SDS011;46846;51.528;5.076;2022-11-15T10:50:01;313.95;;;298.27;;
60973;SDS011;46846;51.528;5.076;2022-11-15T10:52:29;323.33;;;307.17;;
60973;SDS011;46846;51.528;5.076;2022-11-15T10:54:58;340.05;;;323.10;;
60973;SDS011;46846;51.528;5.076;2022-11-15T10:57:32;340.52;;;323.17;;
60973;SDS011;46846;51.528;5.076;2022-11-15T11:02:55;331.60;;;314.80;;
60973;SDS011;46846;51.528;5.076;2022-11-15T11:08:02;342.15;;;325.05;;
60973;SDS011;46846;51.528;5.076;2022-11-15T11:10:52;326.58;;;310.20;;
60973;SDS011;46846;51.528;5.076;2022-11-15T11:13:22;316.48;;;300.45;;
60973;SDS011;46846;51.528;5.076;2022-11-15T11:15:58;330.67;;;314.15;;
60973;SDS011;46846;51.528;5.076;2022-11-15T11:18:26;336.08;;;319.23;;
60973;SDS011;46846;51.528;5.076;2022-11-15T11:20:58;333.55;;;316.35;;
60973;SDS011;46846;51.528;5.076;2022-11-15T11:29:02;340.77;;;323.30;;
60973;SDS011;46846;51.528;5.076;2022-11-15T11:34:58;348.48;;;330.65;;
60973;SDS011;46846;51.528;5.076;2022-11-15T11:37:49;341.23;;;323.55;;
60973;SDS011;46846;51.528;5.076;2022-11-15T11:43:21;346.88;;;329.02;;
60973;SDS011;46846;51.528;5.076;2022-11-15T11:46:22;333.63;;;316.88;;
60973;SDS011;46846;51.528;5.076;2022-11-15T11:49:08;336.40;;;319.50;;
60973;SDS011;46846;51.528;5.076;2022-11-15T11:57:22;351.50;;;332.77;;
60973;SDS011;46846;51.528;5.076;2022-11-15T12:02:41;341.60;;;324.42;;
60973;SDS011;46846;51.528;5.076;2022-11-15T12:05:12;343.27;;;324.83;;
60973;SDS011;46846;51.528;5.076;2022-11-15T12:07:43;354.42;;;336.10;;
60973;SDS011;46846;51.528;5.076;2022-11-15T12:10:14;337.33;;;320.23;;
60973;SDS011;46846;51.528;5.076;2022-11-15T12:15:14;356.30;;;337.85;;
60973;SDS011;46846;51.528;5.076;2022-11-15T12:17:43;352.77;;;334.58;;
60973;SDS011;46846;51.528;5.076;2022-11-15T12:23:34;348.02;;;330.58;;
60973;SDS011;46846;51.528;5.076;2022-11-15T12:36:47;361.50;;;343.27;;
60973;SDS011;46846;51.528;5.076;2022-11-15T12:39:14;344.92;;;327.63;;
60973;SDS011;46846;51.528;5.076;2022-11-15T12:47:43;359.77;;;341.77;;
60973;SDS011;46846;51.528;5.076;2022-11-15T12:49:50;348.90;;;331.35;;
60973;SDS011;46846;51.528;5.076;2022-11-15T13:02:24;336.57;;;319.63;;
60973;SDS011;46846;51.528;5.076;2022-11-15T13:04:52;338.08;;;321.10;;
60973;SDS011;46846;51.528;5.076;2022-11-15T13:10:07;364.95;;;346.70;;
60973;SDS011;46846;51.528;5.076;2022-11-15T13:12:56;344.65;;;326.98;;
60973;SDS011;46846;51.528;5.076;2022-11-15T13:15:39;355.33;;;337.52;;
60973;SDS011;46846;51.528;5.076;2022-11-15T13:18:31;354.00;;;336.35;;
60973;SDS011;46846;51.528;5.076;2022-11-15T13:21:00;366.25;;;348.05;;
60973;SDS011;46846;51.528;5.076;2022-11-15T13:23:26;380.88;;;361.50;;
60973;SDS011;46846;51.528;5.076;2022-11-15T13:25:54;376.55;;;357.85;;
60973;SDS011;46846;51.528;5.076;2022-11-15T13:30:53;352.73;;;334.70;;
60973;SDS011;46846;51.528;5.076;2022-11-15T13:35:58;359.00;;;341.00;;
60973;SDS011;46846;51.528;5.076;2022-11-15T13:38:33;364.50;;;346.15;;
60973;SDS011;46846;51.528;5.076;2022-11-15T13:41:11;371.83;;;353.40;;
60973;SDS011;46846;51.528;5.076;2022-11-15T13:43:49;359.35;;;341.38;;
60973;SDS011;46846;51.528;5.076;2022-11-15T13:46:20;357.33;;;339.15;;
60973;SDS011;46846;51.528;5.076;2022-11-15T13:48:54;392.52;;;373.17;;
60973;SDS011;46846;51.528;5.076;2022-11-15T13:56:33;383.95;;;364.80;;
60973;SDS011;46846;51.528;5.076;2022-11-15T13:59:01;362.42;;;344.08;;
60973;SDS011;46846;51.528;5.076;2022-11-15T14:01:34;381.27;;;362.17;;
60973;SDS011;46846;51.528;5.076;2022-11-15T14:03:59;383.52;;;364.25;;
60973;SDS011;46846;51.528;5.076;2022-11-15T14:06:27;387.98;;;368.55;;
60973;SDS011;46846;51.528;5.076;2022-11-15T14:11:32;374.50;;;355.88;;
60973;SDS011;46846;51.528;5.076;2022-11-15T14:14:15;376.38;;;357.67;;
60973;SDS011;46846;51.528;5.076;2022-11-15T14:16:42;376.33;;;357.65;;
60973;SDS011;46846;51.528;5.076;2022-11-15T14:19:10;377.35;;;358.58;;
60973;SDS011;46846;51.528;5.076;2022-11-15T14:24:30;360.17;;;341.42;;
60973;SDS011;46846;51.528;5.076;2022-11-15T14:27:14;381.50;;;362.05;;
60973;SDS011;46846;51.528;5.076;2022-11-15T14:32:12;349.13;;;331.00;;
60973;SDS011;46846;51.528;5.076;2022-11-15T14:34:43;354.42;;;336.45;;
60973;SDS011;46846;51.528;5.076;2022-11-15T14:39:45;360.58;;;342.20;;
60973;SDS011;46846;51.528;5.076;2022-11-15T14:42:10;368.02;;;349.48;;
60973;SDS011;46846;51.528;5.076;2022-11-15T14:47:01;341.07;;;323.97;;
60973;SDS011;46846;51.528;5.076;2022-11-15T14:49:26;381.20;;;362.23;;
60973;SDS011;46846;51.528;5.076;2022-11-15T14:54:17;337.80;;;321.00;;
60973;SDS011;46846;51.528;5.076;2022-11-15T14:56:42;362.23;;;344.33;;
60973;SDS011;46846;51.528;5.076;2022-11-15T14:59:08;355.58;;;337.83;;
60973;SDS011;46846;51.528;5.076;2022-11-15T15:03:58;347.00;;;329.40;;
60973;SDS011;46846;51.528;5.076;2022-11-15T15:06:24;379.27;;;360.27;;
60973;SDS011;46846;51.528;5.076;2022-11-15T15:08:50;365.88;;;347.70;;
60973;SDS011;46846;51.528;5.076;2022-11-15T15:11:18;371.33;;;352.77;;
60973;SDS011;46846;51.528;5.076;2022-11-15T15:13:51;394.05;;;374.58;;
60973;SDS011;46846;51.528;5.076;2022-11-15T15:18:43;359.17;;;341.05;;
60973;SDS011;46846;51.528;5.076;2022-11-15T15:21:27;364.92;;;346.48;;
60973;SDS011;46846;51.528;5.076;2022-11-15T15:23:53;383.13;;;364.08;;
60973;SDS011;46846;51.528;5.076;2022-11-15T15:26:19;388.52;;;369.02;;
60973;SDS011;46846;51.528;5.076;2022-11-15T15:28:45;370.30;;;351.13;;
60973;SDS011;46846;51.528;5.076;2022-11-15T15:31:13;382.38;;;362.73;;
60973;SDS011;46846;51.528;5.076;2022-11-15T15:33:39;389.77;;;369.90;;
60973;SDS011;46846;51.528;5.076;2022-11-15T15:43:20;343.27;;;326.03;;
60973;SDS011;46846;51.528;5.076;2022-11-15T15:45:46;344.45;;;327.20;;
60973;SDS011;46846;51.528;5.076;2022-11-15T15:50:41;367.13;;;348.60;;
60973;SDS011;46846;51.528;5.076;2022-11-15T15:53:08;381.35;;;362.23;;
60973;SDS011;46846;51.528;5.076;2022-11-15T15:55:35;358.65;;;340.42;;
60973;SDS011;46846;51.528;5.076;2022-11-15T15:58:01;363.20;;;344.85;;
60973;SDS011;46846;51.528;5.076;2022-11-15T16:00:26;385.67;;;366.65;;
60973;SDS011;46846;51.528;5.076;2022-11-15T16:10:14;357.67;;;339.60;;
60973;SDS011;46846;51.528;5.076;2022-11-15T16:12:50;338.23;;;320.17;;
60973;SDS011;46846;51.528;5.076;2022-11-15T16:17:43;345.48;;;328.13;;
60973;SDS011;46846;51.528;5.076;2022-11-15T16:22:59;383.33;;;364.05;;
60973;SDS011;46846;51.528;5.076;2022-11-15T16:25:25;389.70;;;369.33;;
60973;SDS011;46846;51.528;5.076;2022-11-15T16:30:18;360.80;;;342.73;;
60973;SDS011;46846;51.528;5.076;2022-11-15T16:32:45;362.45;;;344.40;;
60973;SDS011;46846;51.528;5.076;2022-11-15T16:35:11;398.33;;;378.15;;
60973;SDS011;46846;51.528;5.076;2022-11-15T16:37:38;400.15;;;380.35;;
60973;SDS011;46846;51.528;5.076;2022-11-15T16:40:17;394.42;;;374.52;;
60973;SDS011;46846;51.528;5.076;2022-11-15T16:42:49;386.27;;;367.13;;
60973;SDS011;46846;51.528;5.076;2022-11-15T16:45:15;378.20;;;359.52;;
60973;SDS011;46846;51.528;5.076;2022-11-15T16:50:06;363.47;;;344.97;;
60973;SDS011;46846;51.528;5.076;2022-11-15T16:52:42;357.67;;;339.95;;
60973;SDS011;46846;51.528;5.076;2022-11-15T16:55:08;368.85;;;350.20;;
60973;SDS011;46846;51.528;5.076;2022-11-15T16:59:58;373.43;;;354.67;;
60973;SDS011;46846;51.528;5.076;2022-11-15T17:04:49;341.60;;;323.83;;
60973;SDS011;46846;51.528;5.076;2022-11-15T17:07:14;358.17;;;339.92;;
60973;SDS011;46846;51.528;5.076;2022-11-15T17:09:40;394.60;;;374.77;;
60973;SDS011;46846;51.528;5.076;2022-11-15T17:12:05;397.88;;;377.73;;
60973;SDS011;46846;51.528;5.076;2022-11-15T17:14:30;372.92;;;354.08;;
60973;SDS011;46846;51.528;5.076;2022-11-15T17:19:21;369.87;;;351.10;;
60973;SDS011;46846;51.528;5.076;2022-11-15T17:24:13;353.30;;;335.45;;
60973;SDS011;46846;51.528;5.076;2022-11-15T17:26:38;362.30;;;344.25;;
60973;SDS011;46846;51.528;5.076;2022-11-15T17:31:32;350.48;;;332.88;;
60973;SDS011;46846;51.528;5.076;2022-11-15T17:34:02;392.63;;;373.13;;